PORT of KAVALA

Country: Greece Country: Greece (GR)
Latitude / Longitude: 40.931315° / 24.402075° Show on Map Show on Map
Local Time:  UTC +3
UN/LOCODE: GRKVA
Vessels in Port: 2
Expected Arrivals: 2

Recent Arrivals & Departures


Vessel Name
Arrival (UTC)
Arrival (LT)
Departure (UTC)
Departure (LT)
Vessel Type: Passenger Vessels  SKALA PRINOS 2014-09-21 21:44:00 2014-09-22 00:44:00
Vessel Type: Passenger Vessels  SKALA PRINOS 2014-09-20 21:43:00 2014-09-21 00:43:00 2014-09-21 20:19:00 2014-09-21 23:19:00
Vessel Type: Passenger Vessels  SALAMIS FILOXENIA 2014-09-21 10:36:00 2014-09-21 13:36:00 2014-09-21 20:08:00 2014-09-21 23:08:00
Vessel Type: Fishing  TAXIARCHIS 2014-09-21 19:05:00 2014-09-21 22:05:00
Vessel Type: Passenger Vessels  THASSOS VI 2014-09-21 17:13:00 2014-09-21 20:13:00 2014-09-21 17:53:00 2014-09-21 20:53:00
Vessel Type: Passenger Vessels  TAXIARCHIS 2014-09-21 15:06:00 2014-09-21 18:06:00 2014-09-21 17:10:00 2014-09-21 20:10:00
Vessel Type: Passenger Vessels  PANAGIA THASOU 2014-09-21 15:44:00 2014-09-21 18:44:00 2014-09-21 16:24:00 2014-09-21 19:24:00
Vessel Type: Passenger Vessels  THASSOS VI 2014-09-21 13:10:00 2014-09-21 16:10:00 2014-09-21 14:08:00 2014-09-21 17:08:00
Vessel Type: Passenger Vessels  PANAGIA THASOU 2014-09-21 10:32:00 2014-09-21 13:32:00 2014-09-21 11:08:00 2014-09-21 14:08:00
Vessel Type: Passenger Vessels  THASSOS VI 2014-09-21 08:40:00 2014-09-21 11:40:00 2014-09-21 09:24:00 2014-09-21 12:24:00

Expected Arrivals


Vessel Name
Scheduled Arrival (UTC)
Scheduled Arrival (LT)
Estimated Arrival (UTC)
Estimated Arrival (LT)
Vessel Type: Cargo Vessels  TOTO BR 2014-09-22 14:00:00 2014-09-22 17:00:00 2014-09-22 10:57:00 2014-09-22 13:57:00
Vessel Type: Tugs, Pilots etc  MARZAMEMI 2014-10-15 07:00:00 2014-10-15 10:00:00 2014-10-10 02:57:00 2014-10-10 05:57:00

Wind Forecast


    
Time (UTC)
Speed
Direction
Temperature
2014-09-22 00:00:00 1 knots 260° 22°C
2014-09-22 03:00:00 3 knots 314° 21°C
2014-09-22 06:00:00 7 knots 297° 20°C
2014-09-22 09:00:00 11 knots 242° 23°C
2014-09-22 12:00:00 14 knots 228° 25°C
2014-09-22 15:00:00 11 knots 221° 25°C
2014-09-22 18:00:00 10 knots 213° 24°C
2014-09-22 21:00:00 12 knots 252° 24°C
2014-09-23 00:00:00 12 knots 286° 22°C
2014-09-23 03:00:00 9 knots 304° 20°C
2014-09-23 06:00:00 6 knots 315° 19°C
2014-09-23 09:00:00 14 knots 277° 21°C
2014-09-23 12:00:00 19 knots 331° 19°C
2014-09-23 15:00:00 18 knots 299° 21°C
2014-09-23 18:00:00 15 knots 305° 19°C
2014-09-23 21:00:00 12 knots 314° 16°C
2014-09-24 00:00:00 12 knots 307° 15°C